sensor_id;sensor_type;location;lat;lon;timestamp;P1;durP1;ratioP1;P2;durP2;ratioP2
5077;SDS011;2557;51.390;7.494;2024-01-06T00:02:18;11.80;;;8.47;;
5077;SDS011;2557;51.390;7.494;2024-01-06T00:04:44;9.23;;;8.30;;
5077;SDS011;2557;51.390;7.494;2024-01-06T00:07:10;10.63;;;8.97;;
5077;SDS011;2557;51.390;7.494;2024-01-06T00:09:38;11.90;;;10.07;;
5077;SDS011;2557;51.390;7.494;2024-01-06T00:12:04;10.60;;;9.53;;
5077;SDS011;2557;51.390;7.494;2024-01-06T00:14:30;12.07;;;9.60;;
5077;SDS011;2557;51.390;7.494;2024-01-06T00:16:56;13.43;;;11.30;;
5077;SDS011;2557;51.390;7.494;2024-01-06T00:19:22;11.67;;;9.90;;
5077;SDS011;2557;51.390;7.494;2024-01-06T00:21:48;12.37;;;9.83;;
5077;SDS011;2557;51.390;7.494;2024-01-06T00:24:14;12.80;;;10.43;;
5077;SDS011;2557;51.390;7.494;2024-01-06T00:26:40;13.40;;;10.83;;
5077;SDS011;2557;51.390;7.494;2024-01-06T00:29:06;12.83;;;9.90;;
5077;SDS011;2557;51.390;7.494;2024-01-06T00:31:32;15.63;;;10.53;;
5077;SDS011;2557;51.390;7.494;2024-01-06T00:33:58;13.03;;;10.10;;
5077;SDS011;2557;51.390;7.494;2024-01-06T00:36:24;15.00;;;10.40;;
5077;SDS011;2557;51.390;7.494;2024-01-06T00:38:50;15.23;;;11.67;;
5077;SDS011;2557;51.390;7.494;2024-01-06T00:41:16;16.10;;;11.03;;
5077;SDS011;2557;51.390;7.494;2024-01-06T00:43:42;10.80;;;9.63;;
5077;SDS011;2557;51.390;7.494;2024-01-06T00:46:08;13.30;;;10.20;;
5077;SDS011;2557;51.390;7.494;2024-01-06T00:48:34;15.03;;;11.37;;
5077;SDS011;2557;51.390;7.494;2024-01-06T00:51:00;13.97;;;10.40;;
5077;SDS011;2557;51.390;7.494;2024-01-06T00:53:26;11.27;;;10.07;;
5077;SDS011;2557;51.390;7.494;2024-01-06T00:55:52;14.10;;;11.20;;
5077;SDS011;2557;51.390;7.494;2024-01-06T00:58:18;14.00;;;10.77;;
5077;SDS011;2557;51.390;7.494;2024-01-06T01:00:44;15.50;;;12.00;;
5077;SDS011;2557;51.390;7.494;2024-01-06T01:03:10;13.23;;;10.43;;
5077;SDS011;2557;51.390;7.494;2024-01-06T01:05:36;12.80;;;11.07;;
5077;SDS011;2557;51.390;7.494;2024-01-06T01:08:02;14.77;;;11.63;;
5077;SDS011;2557;51.390;7.494;2024-01-06T01:10:28;12.70;;;11.03;;
5077;SDS011;2557;51.390;7.494;2024-01-06T01:12:54;15.27;;;11.20;;
5077;SDS011;2557;51.390;7.494;2024-01-06T01:15:20;14.37;;;11.13;;
5077;SDS011;2557;51.390;7.494;2024-01-06T01:17:46;15.60;;;11.43;;
5077;SDS011;2557;51.390;7.494;2024-01-06T01:20:12;14.43;;;11.30;;
5077;SDS011;2557;51.390;7.494;2024-01-06T01:22:38;16.33;;;11.87;;
5077;SDS011;2557;51.390;7.494;2024-01-06T01:25:04;14.33;;;11.50;;
5077;SDS011;2557;51.390;7.494;2024-01-06T01:27:32;14.30;;;10.87;;
5077;SDS011;2557;51.390;7.494;2024-01-06T01:29:59;13.37;;;10.90;;
5077;SDS011;2557;51.390;7.494;2024-01-06T01:32:25;17.23;;;11.07;;
5077;SDS011;2557;51.390;7.494;2024-01-06T01:34:51;13.17;;;10.40;;
5077;SDS011;2557;51.390;7.494;2024-01-06T01:37:16;15.30;;;11.30;;
5077;SDS011;2557;51.390;7.494;2024-01-06T01:39:42;16.93;;;11.10;;
5077;SDS011;2557;51.390;7.494;2024-01-06T01:42:09;13.50;;;10.50;;
5077;SDS011;2557;51.390;7.494;2024-01-06T01:44:35;13.50;;;11.10;;
5077;SDS011;2557;51.390;7.494;2024-01-06T01:47:00;12.60;;;9.83;;
5077;SDS011;2557;51.390;7.494;2024-01-06T01:49:27;15.97;;;11.63;;
5077;SDS011;2557;51.390;7.494;2024-01-06T01:51:52;10.87;;;8.90;;
5077;SDS011;2557;51.390;7.494;2024-01-06T01:54:18;18.93;;;10.83;;
5077;SDS011;2557;51.390;7.494;2024-01-06T01:56:45;14.90;;;10.93;;
5077;SDS011;2557;51.390;7.494;2024-01-06T01:59:12;12.07;;;8.47;;
5077;SDS011;2557;51.390;7.494;2024-01-06T02:01:38;12.23;;;10.90;;
5077;SDS011;2557;51.390;7.494;2024-01-06T02:04:05;21.10;;;10.70;;
5077;SDS011;2557;51.390;7.494;2024-01-06T02:06:31;12.90;;;9.57;;
5077;SDS011;2557;51.390;7.494;2024-01-06T02:08:57;12.70;;;10.20;;
5077;SDS011;2557;51.390;7.494;2024-01-06T02:11:23;11.30;;;8.50;;
5077;SDS011;2557;51.390;7.494;2024-01-06T02:13:49;12.37;;;9.53;;
5077;SDS011;2557;51.390;7.494;2024-01-06T02:16:15;12.37;;;10.33;;
5077;SDS011;2557;51.390;7.494;2024-01-06T02:18:41;14.00;;;10.17;;
5077;SDS011;2557;51.390;7.494;2024-01-06T02:21:07;14.47;;;10.00;;
5077;SDS011;2557;51.390;7.494;2024-01-06T02:23:34;13.33;;;10.47;;
5077;SDS011;2557;51.390;7.494;2024-01-06T02:26:01;13.43;;;9.80;;
5077;SDS011;2557;51.390;7.494;2024-01-06T02:28:27;17.30;;;11.53;;
5077;SDS011;2557;51.390;7.494;2024-01-06T02:30:53;21.57;;;12.40;;
5077;SDS011;2557;51.390;7.494;2024-01-06T02:33:19;12.83;;;9.83;;
5077;SDS011;2557;51.390;7.494;2024-01-06T02:35:45;16.27;;;10.10;;
5077;SDS011;2557;51.390;7.494;2024-01-06T02:38:11;14.03;;;10.40;;
5077;SDS011;2557;51.390;7.494;2024-01-06T02:40:37;12.43;;;9.50;;
5077;SDS011;2557;51.390;7.494;2024-01-06T02:43:03;9.90;;;8.17;;
5077;SDS011;2557;51.390;7.494;2024-01-06T02:45:29;8.80;;;5.73;;
5077;SDS011;2557;51.390;7.494;2024-01-06T02:47:55;5.67;;;5.10;;
5077;SDS011;2557;51.390;7.494;2024-01-06T02:50:21;8.27;;;5.93;;
5077;SDS011;2557;51.390;7.494;2024-01-06T02:52:47;6.70;;;5.50;;
5077;SDS011;2557;51.390;7.494;2024-01-06T02:55:13;11.63;;;6.50;;
5077;SDS011;2557;51.390;7.494;2024-01-06T02:57:39;10.97;;;7.23;;
5077;SDS011;2557;51.390;7.494;2024-01-06T03:00:06;8.50;;;7.67;;
5077;SDS011;2557;51.390;7.494;2024-01-06T03:02:32;8.93;;;7.20;;
5077;SDS011;2557;51.390;7.494;2024-01-06T03:05:00;9.67;;;7.97;;
5077;SDS011;2557;51.390;7.494;2024-01-06T03:07:26;11.83;;;8.30;;
5077;SDS011;2557;51.390;7.494;2024-01-06T03:09:52;8.87;;;7.13;;
5077;SDS011;2557;51.390;7.494;2024-01-06T03:12:18;10.87;;;8.30;;
5077;SDS011;2557;51.390;7.494;2024-01-06T03:14:44;9.33;;;7.50;;
5077;SDS011;2557;51.390;7.494;2024-01-06T03:17:10;10.00;;;7.80;;
5077;SDS011;2557;51.390;7.494;2024-01-06T03:19:36;12.17;;;8.57;;
5077;SDS011;2557;51.390;7.494;2024-01-06T03:22:02;12.67;;;7.90;;
5077;SDS011;2557;51.390;7.494;2024-01-06T03:24:28;8.90;;;7.40;;
5077;SDS011;2557;51.390;7.494;2024-01-06T03:26:55;11.20;;;8.57;;
5077;SDS011;2557;51.390;7.494;2024-01-06T03:29:21;11.40;;;8.40;;
5077;SDS011;2557;51.390;7.494;2024-01-06T03:31:47;13.83;;;8.83;;
5077;SDS011;2557;51.390;7.494;2024-01-06T03:34:13;13.83;;;8.50;;
5077;SDS011;2557;51.390;7.494;2024-01-06T03:36:40;9.53;;;7.67;;
5077;SDS011;2557;51.390;7.494;2024-01-06T03:39:06;10.80;;;7.50;;
5077;SDS011;2557;51.390;7.494;2024-01-06T03:41:32;11.77;;;7.97;;
5077;SDS011;2557;51.390;7.494;2024-01-06T03:43:58;10.80;;;8.30;;
5077;SDS011;2557;51.390;7.494;2024-01-06T03:46:24;12.83;;;8.40;;
5077;SDS011;2557;51.390;7.494;2024-01-06T03:48:50;11.27;;;8.20;;
5077;SDS011;2557;51.390;7.494;2024-01-06T03:51:16;15.80;;;9.00;;
5077;SDS011;2557;51.390;7.494;2024-01-06T03:53:42;13.57;;;9.07;;
5077;SDS011;2557;51.390;7.494;2024-01-06T03:56:08;12.03;;;8.37;;
5077;SDS011;2557;51.390;7.494;2024-01-06T03:58:34;14.60;;;8.63;;
5077;SDS011;2557;51.390;7.494;2024-01-06T04:01:01;15.77;;;10.27;;
5077;SDS011;2557;51.390;7.494;2024-01-06T04:03:27;15.90;;;10.43;;
5077;SDS011;2557;51.390;7.494;2024-01-06T04:05:53;13.10;;;9.73;;
5077;SDS011;2557;51.390;7.494;2024-01-06T04:08:19;17.00;;;12.57;;
5077;SDS011;2557;51.390;7.494;2024-01-06T04:10:45;16.93;;;11.00;;
5077;SDS011;2557;51.390;7.494;2024-01-06T04:13:11;21.00;;;12.00;;
5077;SDS011;2557;51.390;7.494;2024-01-06T04:15:37;19.73;;;12.70;;
5077;SDS011;2557;51.390;7.494;2024-01-06T04:18:04;16.70;;;10.93;;
5077;SDS011;2557;51.390;7.494;2024-01-06T04:20:30;17.03;;;11.60;;
5077;SDS011;2557;51.390;7.494;2024-01-06T04:22:56;16.30;;;10.80;;
5077;SDS011;2557;51.390;7.494;2024-01-06T04:25:22;19.33;;;12.73;;
5077;SDS011;2557;51.390;7.494;2024-01-06T04:27:48;19.23;;;13.20;;
5077;SDS011;2557;51.390;7.494;2024-01-06T04:30:15;21.43;;;14.00;;
5077;SDS011;2557;51.390;7.494;2024-01-06T04:32:41;26.33;;;15.00;;
5077;SDS011;2557;51.390;7.494;2024-01-06T04:35:07;22.40;;;14.23;;
5077;SDS011;2557;51.390;7.494;2024-01-06T04:37:33;20.97;;;14.17;;
5077;SDS011;2557;51.390;7.494;2024-01-06T04:39:59;25.90;;;15.27;;
5077;SDS011;2557;51.390;7.494;2024-01-06T04:42:25;20.80;;;13.60;;
5077;SDS011;2557;51.390;7.494;2024-01-06T04:44:51;20.23;;;13.30;;
5077;SDS011;2557;51.390;7.494;2024-01-06T04:47:17;20.90;;;14.10;;
5077;SDS011;2557;51.390;7.494;2024-01-06T04:49:44;24.23;;;14.73;;
5077;SDS011;2557;51.390;7.494;2024-01-06T04:52:10;25.63;;;15.00;;
5077;SDS011;2557;51.390;7.494;2024-01-06T04:54:36;27.67;;;16.27;;
5077;SDS011;2557;51.390;7.494;2024-01-06T04:57:02;24.53;;;15.20;;
5077;SDS011;2557;51.390;7.494;2024-01-06T04:59:29;26.23;;;14.20;;
5077;SDS011;2557;51.390;7.494;2024-01-06T05:01:55;24.73;;;14.77;;
5077;SDS011;2557;51.390;7.494;2024-01-06T05:04:22;27.50;;;15.90;;
5077;SDS011;2557;51.390;7.494;2024-01-06T05:06:48;20.60;;;13.70;;
5077;SDS011;2557;51.390;7.494;2024-01-06T05:09:14;23.37;;;14.10;;
5077;SDS011;2557;51.390;7.494;2024-01-06T05:11:43;27.90;;;15.13;;
5077;SDS011;2557;51.390;7.494;2024-01-06T05:14:09;24.67;;;13.80;;
5077;SDS011;2557;51.390;7.494;2024-01-06T05:16:35;24.20;;;13.90;;
5077;SDS011;2557;51.390;7.494;2024-01-06T05:19:01;29.00;;;15.80;;
5077;SDS011;2557;51.390;7.494;2024-01-06T05:21:27;22.50;;;12.43;;
5077;SDS011;2557;51.390;7.494;2024-01-06T05:23:53;25.17;;;14.57;;
5077;SDS011;2557;51.390;7.494;2024-01-06T05:26:19;23.03;;;13.83;;
5077;SDS011;2557;51.390;7.494;2024-01-06T05:28:45;24.27;;;12.90;;
5077;SDS011;2557;51.390;7.494;2024-01-06T05:31:11;24.43;;;13.20;;
5077;SDS011;2557;51.390;7.494;2024-01-06T05:33:37;28.50;;;13.93;;
5077;SDS011;2557;51.390;7.494;2024-01-06T05:36:03;24.73;;;13.63;;
5077;SDS011;2557;51.390;7.494;2024-01-06T05:38:29;23.13;;;12.53;;
5077;SDS011;2557;51.390;7.494;2024-01-06T05:40:55;23.97;;;12.93;;
5077;SDS011;2557;51.390;7.494;2024-01-06T05:43:21;22.03;;;12.90;;
5077;SDS011;2557;51.390;7.494;2024-01-06T05:45:47;24.27;;;13.30;;
5077;SDS011;2557;51.390;7.494;2024-01-06T05:48:13;21.63;;;12.93;;
5077;SDS011;2557;51.390;7.494;2024-01-06T05:50:39;20.77;;;11.90;;
5077;SDS011;2557;51.390;7.494;2024-01-06T05:53:05;22.50;;;13.40;;
5077;SDS011;2557;51.390;7.494;2024-01-06T05:55:31;23.13;;;12.83;;
5077;SDS011;2557;51.390;7.494;2024-01-06T05:57:57;23.30;;;14.27;;
5077;SDS011;2557;51.390;7.494;2024-01-06T06:00:23;23.30;;;13.53;;
5077;SDS011;2557;51.390;7.494;2024-01-06T06:02:49;27.13;;;14.07;;
5077;SDS011;2557;51.390;7.494;2024-01-06T06:05:15;24.13;;;12.80;;
5077;SDS011;2557;51.390;7.494;2024-01-06T06:07:41;23.17;;;12.60;;
5077;SDS011;2557;51.390;7.494;2024-01-06T06:10:08;17.90;;;10.73;;
5077;SDS011;2557;51.390;7.494;2024-01-06T06:12:35;20.93;;;11.40;;
5077;SDS011;2557;51.390;7.494;2024-01-06T06:15:01;20.17;;;11.03;;
5077;SDS011;2557;51.390;7.494;2024-01-06T06:17:28;21.07;;;12.07;;
5077;SDS011;2557;51.390;7.494;2024-01-06T06:19:54;22.50;;;12.20;;
5077;SDS011;2557;51.390;7.494;2024-01-06T06:22:21;19.20;;;11.13;;
5077;SDS011;2557;51.390;7.494;2024-01-06T06:24:48;22.73;;;12.03;;
5077;SDS011;2557;51.390;7.494;2024-01-06T06:27:14;18.53;;;11.50;;
5077;SDS011;2557;51.390;7.494;2024-01-06T06:29:40;24.43;;;12.63;;
5077;SDS011;2557;51.390;7.494;2024-01-06T06:32:06;24.40;;;12.77;;
5077;SDS011;2557;51.390;7.494;2024-01-06T06:34:32;25.93;;;12.87;;
5077;SDS011;2557;51.390;7.494;2024-01-06T06:36:58;20.37;;;11.87;;
5077;SDS011;2557;51.390;7.494;2024-01-06T06:39:24;22.00;;;12.20;;
5077;SDS011;2557;51.390;7.494;2024-01-06T06:41:52;24.97;;;12.60;;
5077;SDS011;2557;51.390;7.494;2024-01-06T06:44:18;24.77;;;13.37;;
5077;SDS011;2557;51.390;7.494;2024-01-06T06:46:44;23.53;;;13.67;;
5077;SDS011;2557;51.390;7.494;2024-01-06T06:49:10;26.70;;;13.60;;
5077;SDS011;2557;51.390;7.494;2024-01-06T06:51:35;22.30;;;13.10;;
5077;SDS011;2557;51.390;7.494;2024-01-06T06:54:02;23.90;;;12.23;;
5077;SDS011;2557;51.390;7.494;2024-01-06T06:56:28;25.53;;;12.07;;
5077;SDS011;2557;51.390;7.494;2024-01-06T06:58:53;23.30;;;11.90;;
5077;SDS011;2557;51.390;7.494;2024-01-06T07:01:19;23.30;;;11.87;;
5077;SDS011;2557;51.390;7.494;2024-01-06T07:03:45;21.57;;;12.97;;
5077;SDS011;2557;51.390;7.494;2024-01-06T07:06:12;24.43;;;14.03;;
5077;SDS011;2557;51.390;7.494;2024-01-06T07:08:39;27.10;;;11.60;;
5077;SDS011;2557;51.390;7.494;2024-01-06T07:11:06;24.43;;;12.63;;
5077;SDS011;2557;51.390;7.494;2024-01-06T07:13:32;25.27;;;13.03;;
5077;SDS011;2557;51.390;7.494;2024-01-06T07:15:58;22.33;;;11.87;;
5077;SDS011;2557;51.390;7.494;2024-01-06T07:18:24;24.83;;;12.47;;
5077;SDS011;2557;51.390;7.494;2024-01-06T07:20:51;25.17;;;12.80;;
5077;SDS011;2557;51.390;7.494;2024-01-06T07:23:17;24.50;;;12.57;;
5077;SDS011;2557;51.390;7.494;2024-01-06T07:25:43;22.43;;;11.60;;
5077;SDS011;2557;51.390;7.494;2024-01-06T07:28:09;18.33;;;11.60;;
5077;SDS011;2557;51.390;7.494;2024-01-06T07:30:35;26.30;;;12.27;;
5077;SDS011;2557;51.390;7.494;2024-01-06T07:33:01;17.53;;;10.70;;
5077;SDS011;2557;51.390;7.494;2024-01-06T07:35:27;19.57;;;10.60;;
5077;SDS011;2557;51.390;7.494;2024-01-06T07:37:53;21.37;;;11.43;;
5077;SDS011;2557;51.390;7.494;2024-01-06T07:40:19;21.50;;;12.40;;
5077;SDS011;2557;51.390;7.494;2024-01-06T07:42:48;21.80;;;12.03;;
5077;SDS011;2557;51.390;7.494;2024-01-06T07:45:14;20.70;;;10.87;;
5077;SDS011;2557;51.390;7.494;2024-01-06T07:47:40;22.60;;;11.73;;
5077;SDS011;2557;51.390;7.494;2024-01-06T07:50:06;22.20;;;11.97;;
5077;SDS011;2557;51.390;7.494;2024-01-06T07:52:33;22.80;;;13.13;;
5077;SDS011;2557;51.390;7.494;2024-01-06T07:54:59;22.63;;;12.83;;
5077;SDS011;2557;51.390;7.494;2024-01-06T07:57:25;21.80;;;12.63;;
5077;SDS011;2557;51.390;7.494;2024-01-06T07:59:51;19.73;;;12.20;;
5077;SDS011;2557;51.390;7.494;2024-01-06T08:02:17;25.70;;;12.93;;
5077;SDS011;2557;51.390;7.494;2024-01-06T08:04:43;19.40;;;10.77;;
5077;SDS011;2557;51.390;7.494;2024-01-06T08:07:09;21.40;;;12.47;;
5077;SDS011;2557;51.390;7.494;2024-01-06T08:09:35;18.17;;;11.33;;
5077;SDS011;2557;51.390;7.494;2024-01-06T08:12:02;22.17;;;12.83;;
5077;SDS011;2557;51.390;7.494;2024-01-06T08:14:28;22.00;;;12.07;;
5077;SDS011;2557;51.390;7.494;2024-01-06T08:16:54;20.97;;;12.17;;
5077;SDS011;2557;51.390;7.494;2024-01-06T08:19:20;19.90;;;12.10;;
5077;SDS011;2557;51.390;7.494;2024-01-06T08:21:46;17.97;;;11.10;;
5077;SDS011;2557;51.390;7.494;2024-01-06T08:24:13;20.30;;;12.33;;
5077;SDS011;2557;51.390;7.494;2024-01-06T08:26:38;20.17;;;11.57;;
5077;SDS011;2557;51.390;7.494;2024-01-06T08:29:05;21.60;;;12.63;;
5077;SDS011;2557;51.390;7.494;2024-01-06T08:31:30;25.37;;;13.90;;
5077;SDS011;2557;51.390;7.494;2024-01-06T08:33:57;21.73;;;13.17;;
5077;SDS011;2557;51.390;7.494;2024-01-06T08:36:23;24.30;;;13.33;;
5077;SDS011;2557;51.390;7.494;2024-01-06T08:38:49;24.50;;;13.30;;
5077;SDS011;2557;51.390;7.494;2024-01-06T08:41:15;29.43;;;14.03;;
5077;SDS011;2557;51.390;7.494;2024-01-06T08:43:41;25.60;;;13.70;;
5077;SDS011;2557;51.390;7.494;2024-01-06T08:46:07;26.97;;;13.80;;
5077;SDS011;2557;51.390;7.494;2024-01-06T08:48:33;24.27;;;13.00;;
5077;SDS011;2557;51.390;7.494;2024-01-06T08:50:59;23.53;;;12.93;;
5077;SDS011;2557;51.390;7.494;2024-01-06T08:53:25;25.90;;;14.60;;
5077;SDS011;2557;51.390;7.494;2024-01-06T08:55:51;24.13;;;13.70;;
5077;SDS011;2557;51.390;7.494;2024-01-06T08:58:17;24.10;;;14.07;;
5077;SDS011;2557;51.390;7.494;2024-01-06T09:00:43;27.13;;;12.47;;
5077;SDS011;2557;51.390;7.494;2024-01-06T09:03:09;23.27;;;13.17;;
5077;SDS011;2557;51.390;7.494;2024-01-06T09:05:37;27.20;;;14.40;;
5077;SDS011;2557;51.390;7.494;2024-01-06T09:08:03;21.30;;;12.60;;
5077;SDS011;2557;51.390;7.494;2024-01-06T09:10:29;26.93;;;13.47;;
5077;SDS011;2557;51.390;7.494;2024-01-06T09:12:55;21.47;;;11.70;;
5077;SDS011;2557;51.390;7.494;2024-01-06T09:15:21;27.50;;;15.53;;
5077;SDS011;2557;51.390;7.494;2024-01-06T09:17:47;29.43;;;15.53;;
5077;SDS011;2557;51.390;7.494;2024-01-06T09:20:13;26.63;;;14.23;;
5077;SDS011;2557;51.390;7.494;2024-01-06T09:22:39;31.87;;;16.50;;
5077;SDS011;2557;51.390;7.494;2024-01-06T09:25:06;31.77;;;15.47;;
5077;SDS011;2557;51.390;7.494;2024-01-06T09:27:32;30.10;;;14.47;;
5077;SDS011;2557;51.390;7.494;2024-01-06T09:29:58;33.73;;;15.90;;
5077;SDS011;2557;51.390;7.494;2024-01-06T09:32:24;30.53;;;16.10;;
5077;SDS011;2557;51.390;7.494;2024-01-06T09:34:50;32.20;;;16.33;;
5077;SDS011;2557;51.390;7.494;2024-01-06T09:37:16;30.83;;;15.60;;
5077;SDS011;2557;51.390;7.494;2024-01-06T09:39:42;29.93;;;15.93;;
5077;SDS011;2557;51.390;7.494;2024-01-06T09:42:08;33.30;;;15.47;;
5077;SDS011;2557;51.390;7.494;2024-01-06T09:44:34;29.33;;;15.10;;
5077;SDS011;2557;51.390;7.494;2024-01-06T09:47:00;29.93;;;15.17;;
5077;SDS011;2557;51.390;7.494;2024-01-06T09:49:28;28.03;;;12.83;;
5077;SDS011;2557;51.390;7.494;2024-01-06T09:51:56;26.23;;;12.73;;
5077;SDS011;2557;51.390;7.494;2024-01-06T09:54:24;25.50;;;12.60;;
5077;SDS011;2557;51.390;7.494;2024-01-06T09:56:51;25.15;;;11.90;;
5077;SDS011;2557;51.390;7.494;2024-01-06T09:59:17;31.17;;;14.07;;
5077;SDS011;2557;51.390;7.494;2024-01-06T10:01:47;19.53;;;11.00;;
5077;SDS011;2557;51.390;7.494;2024-01-06T10:04:14;23.95;;;11.40;;
5077;SDS011;2557;51.390;7.494;2024-01-06T10:06:41;21.00;;;11.77;;
5077;SDS011;2557;51.390;7.494;2024-01-06T10:09:07;23.40;;;10.63;;
5077;SDS011;2557;51.390;7.494;2024-01-06T10:11:35;18.70;;;10.50;;
5077;SDS011;2557;51.390;7.494;2024-01-06T10:14:02;23.43;;;12.07;;
5077;SDS011;2557;51.390;7.494;2024-01-06T10:16:28;19.83;;;11.05;;
5077;SDS011;2557;51.390;7.494;2024-01-06T10:18:55;21.27;;;10.47;;
5077;SDS011;2557;51.390;7.494;2024-01-06T10:21:21;23.43;;;11.60;;
5077;SDS011;2557;51.390;7.494;2024-01-06T10:23:47;20.17;;;10.20;;
5077;SDS011;2557;51.390;7.494;2024-01-06T10:26:14;18.80;;;9.53;;
5077;SDS011;2557;51.390;7.494;2024-01-06T10:28:40;17.50;;;12.27;;
5077;SDS011;2557;51.390;7.494;2024-01-06T10:31:07;25.93;;;10.30;;
5077;SDS011;2557;51.390;7.494;2024-01-06T10:33:33;16.57;;;9.57;;
5077;SDS011;2557;51.390;7.494;2024-01-06T10:36:00;25.13;;;9.60;;
5077;SDS011;2557;51.390;7.494;2024-01-06T10:38:28;20.77;;;11.30;;
5077;SDS011;2557;51.390;7.494;2024-01-06T10:43:24;18.27;;;8.93;;
5077;SDS011;2557;51.390;7.494;2024-01-06T10:45:51;15.20;;;8.83;;
5077;SDS011;2557;51.390;7.494;2024-01-06T10:48:20;18.30;;;9.57;;
5077;SDS011;2557;51.390;7.494;2024-01-06T10:50:48;14.63;;;9.60;;
5077;SDS011;2557;51.390;7.494;2024-01-06T10:53:14;22.10;;;9.80;;
5077;SDS011;2557;51.390;7.494;2024-01-06T10:55:41;20.60;;;8.30;;
5077;SDS011;2557;51.390;7.494;2024-01-06T10:58:07;18.83;;;10.25;;
5077;SDS011;2557;51.390;7.494;2024-01-06T11:00:33;16.00;;;8.53;;
5077;SDS011;2557;51.390;7.494;2024-01-06T11:02:59;19.27;;;10.63;;
5077;SDS011;2557;51.390;7.494;2024-01-06T11:05:25;20.00;;;11.15;;
5077;SDS011;2557;51.390;7.494;2024-01-06T11:07:52;17.30;;;10.60;;
5077;SDS011;2557;51.390;7.494;2024-01-06T11:10:24;16.48;;;8.57;;
5077;SDS011;2557;51.390;7.494;2024-01-06T11:13:32;16.48;;;9.57;;
5077;SDS011;2557;51.390;7.494;2024-01-06T11:15:48;18.67;;;9.30;;
5077;SDS011;2557;51.390;7.494;2024-01-06T11:18:30;20.60;;;9.73;;
5077;SDS011;2557;51.390;7.494;2024-01-06T11:23:40;19.10;;;9.77;;
5077;SDS011;2557;51.390;7.494;2024-01-06T11:26:06;16.90;;;9.07;;
5077;SDS011;2557;51.390;7.494;2024-01-06T11:28:42;19.00;;;10.60;;
5077;SDS011;2557;51.390;7.494;2024-01-06T11:31:09;17.87;;;8.60;;
5077;SDS011;2557;51.390;7.494;2024-01-06T11:33:42;13.00;;;7.77;;
5077;SDS011;2557;51.390;7.494;2024-01-06T11:36:08;14.38;;;9.10;;
5077;SDS011;2557;51.390;7.494;2024-01-06T11:38:39;14.65;;;7.88;;
5077;SDS011;2557;51.390;7.494;2024-01-06T11:41:08;16.50;;;7.83;;
5077;SDS011;2557;51.390;7.494;2024-01-06T11:43:36;16.95;;;8.07;;
5077;SDS011;2557;51.390;7.494;2024-01-06T11:46:05;15.02;;;8.32;;
5077;SDS011;2557;51.390;7.494;2024-01-06T11:48:32;16.30;;;8.52;;
5077;SDS011;2557;51.390;7.494;2024-01-06T11:50:58;13.80;;;8.25;;
5077;SDS011;2557;51.390;7.494;2024-01-06T11:53:27;17.90;;;8.43;;
5077;SDS011;2557;51.390;7.494;2024-01-06T11:55:54;16.48;;;8.80;;
5077;SDS011;2557;51.390;7.494;2024-01-06T11:58:20;17.23;;;9.25;;
5077;SDS011;2557;51.390;7.494;2024-01-06T12:00:54;16.10;;;8.90;;
5077;SDS011;2557;51.390;7.494;2024-01-06T12:03:21;18.45;;;8.85;;
5077;SDS011;2557;51.390;7.494;2024-01-06T12:06:09;12.88;;;8.27;;
5077;SDS011;2557;51.390;7.494;2024-01-06T12:08:34;15.18;;;9.88;;
5077;SDS011;2557;51.390;7.494;2024-01-06T12:11:03;15.40;;;9.63;;
5077;SDS011;2557;51.390;7.494;2024-01-06T12:13:29;17.50;;;10.60;;
5077;SDS011;2557;51.390;7.494;2024-01-06T12:15:55;22.05;;;10.32;;
5077;SDS011;2557;51.390;7.494;2024-01-06T12:18:21;13.50;;;7.73;;
5077;SDS011;2557;51.390;7.494;2024-01-06T12:20:52;14.13;;;9.02;;
5077;SDS011;2557;51.390;7.494;2024-01-06T12:23:25;14.43;;;8.70;;
5077;SDS011;2557;51.390;7.494;2024-01-06T12:25:52;13.90;;;9.67;;
5077;SDS011;2557;51.390;7.494;2024-01-06T12:28:18;15.63;;;9.40;;
5077;SDS011;2557;51.390;7.494;2024-01-06T12:30:44;15.27;;;8.50;;
5077;SDS011;2557;51.390;7.494;2024-01-06T12:33:10;17.13;;;9.20;;
5077;SDS011;2557;51.390;7.494;2024-01-06T12:35:37;13.80;;;7.37;;
5077;SDS011;2557;51.390;7.494;2024-01-06T12:38:03;13.07;;;7.93;;
5077;SDS011;2557;51.390;7.494;2024-01-06T12:40:32;18.35;;;9.50;;
5077;SDS011;2557;51.390;7.494;2024-01-06T12:42:58;13.53;;;8.00;;
5077;SDS011;2557;51.390;7.494;2024-01-06T12:45:24;11.07;;;8.17;;
5077;SDS011;2557;51.390;7.494;2024-01-06T12:47:52;13.27;;;8.57;;
5077;SDS011;2557;51.390;7.494;2024-01-06T12:50:19;16.55;;;9.75;;
5077;SDS011;2557;51.390;7.494;2024-01-06T12:52:45;13.33;;;9.80;;
5077;SDS011;2557;51.390;7.494;2024-01-06T12:55:11;20.02;;;11.20;;
5077;SDS011;2557;51.390;7.494;2024-01-06T12:57:37;17.35;;;9.52;;
5077;SDS011;2557;51.390;7.494;2024-01-06T13:00:03;19.30;;;11.45;;
5077;SDS011;2557;51.390;7.494;2024-01-06T13:02:31;20.50;;;11.27;;
5077;SDS011;2557;51.390;7.494;2024-01-06T13:04:57;22.98;;;12.05;;
5077;SDS011;2557;51.390;7.494;2024-01-06T13:07:23;17.92;;;10.32;;
5077;SDS011;2557;51.390;7.494;2024-01-06T13:09:49;21.38;;;10.50;;
5077;SDS011;2557;51.390;7.494;2024-01-06T13:12:15;16.35;;;10.45;;
5077;SDS011;2557;51.390;7.494;2024-01-06T13:14:43;23.13;;;11.85;;
5077;SDS011;2557;51.390;7.494;2024-01-06T13:17:12;23.30;;;12.32;;
5077;SDS011;2557;51.390;7.494;2024-01-06T13:19:39;25.40;;;12.85;;
5077;SDS011;2557;51.390;7.494;2024-01-06T13:22:05;24.63;;;12.23;;
5077;SDS011;2557;51.390;7.494;2024-01-06T13:24:31;21.70;;;11.75;;
5077;SDS011;2557;51.390;7.494;2024-01-06T13:26:57;24.42;;;13.15;;
5077;SDS011;2557;51.390;7.494;2024-01-06T13:29:24;30.55;;;13.02;;
5077;SDS011;2557;51.390;7.494;2024-01-06T13:31:50;24.55;;;13.55;;
5077;SDS011;2557;51.390;7.494;2024-01-06T13:34:17;28.08;;;13.10;;
5077;SDS011;2557;51.390;7.494;2024-01-06T13:36:43;26.53;;;11.83;;
5077;SDS011;2557;51.390;7.494;2024-01-06T13:39:09;21.67;;;12.40;;
5077;SDS011;2557;51.390;7.494;2024-01-06T13:41:45;24.63;;;12.57;;
5077;SDS011;2557;51.390;7.494;2024-01-06T13:44:11;23.45;;;12.32;;
5077;SDS011;2557;51.390;7.494;2024-01-06T13:46:37;18.03;;;10.80;;
5077;SDS011;2557;51.390;7.494;2024-01-06T13:49:03;16.20;;;10.38;;
5077;SDS011;2557;51.390;7.494;2024-01-06T13:51:29;15.97;;;9.97;;
5077;SDS011;2557;51.390;7.494;2024-01-06T13:53:55;17.17;;;10.20;;
5077;SDS011;2557;51.390;7.494;2024-01-06T13:56:21;17.90;;;10.00;;
5077;SDS011;2557;51.390;7.494;2024-01-06T13:58:47;20.23;;;10.27;;
5077;SDS011;2557;51.390;7.494;2024-01-06T14:01:13;14.23;;;8.80;;
5077;SDS011;2557;51.390;7.494;2024-01-06T14:03:39;13.85;;;9.35;;
5077;SDS011;2557;51.390;7.494;2024-01-06T14:06:05;17.52;;;9.00;;
5077;SDS011;2557;51.390;7.494;2024-01-06T14:08:32;19.20;;;10.10;;
5077;SDS011;2557;51.390;7.494;2024-01-06T14:10:58;12.47;;;8.27;;
5077;SDS011;2557;51.390;7.494;2024-01-06T14:13:24;12.80;;;8.07;;
5077;SDS011;2557;51.390;7.494;2024-01-06T14:15:51;16.08;;;8.40;;
5077;SDS011;2557;51.390;7.494;2024-01-06T14:18:17;11.85;;;7.57;;
5077;SDS011;2557;51.390;7.494;2024-01-06T14:20:43;10.87;;;7.40;;
5077;SDS011;2557;51.390;7.494;2024-01-06T14:23:09;11.10;;;7.28;;
5077;SDS011;2557;51.390;7.494;2024-01-06T14:25:35;11.20;;;7.55;;
5077;SDS011;2557;51.390;7.494;2024-01-06T14:28:01;8.10;;;6.50;;
5077;SDS011;2557;51.390;7.494;2024-01-06T14:30:27;8.43;;;7.32;;
5077;SDS011;2557;51.390;7.494;2024-01-06T14:32:54;9.68;;;6.28;;
5077;SDS011;2557;51.390;7.494;2024-01-06T14:35:20;12.20;;;6.40;;
5077;SDS011;2557;51.390;7.494;2024-01-06T14:37:46;10.35;;;6.85;;
5077;SDS011;2557;51.390;7.494;2024-01-06T14:40:12;9.95;;;7.57;;
5077;SDS011;2557;51.390;7.494;2024-01-06T14:42:38;11.65;;;6.95;;
5077;SDS011;2557;51.390;7.494;2024-01-06T14:45:04;13.30;;;7.10;;
5077;SDS011;2557;51.390;7.494;2024-01-06T14:47:33;11.30;;;7.45;;
5077;SDS011;2557;51.390;7.494;2024-01-06T14:49:59;10.32;;;6.68;;
5077;SDS011;2557;51.390;7.494;2024-01-06T14:52:25;11.60;;;6.50;;
5077;SDS011;2557;51.390;7.494;2024-01-06T14:54:52;11.35;;;7.38;;